createdAt,value
2023-05-18T00:04:29.334Z,95.34
2023-05-18T00:09:41.424Z,95.39
2023-05-18T00:14:43.803Z,95.43
2023-05-18T00:19:50.302Z,95.42
2023-05-18T00:24:53.132Z,95.45
2023-05-18T00:29:57.554Z,95.40
2023-05-18T00:34:59.650Z,95.42
2023-05-18T00:40:03.383Z,95.38
2023-05-18T00:45:07.406Z,95.37
2023-05-18T00:50:19.267Z,95.34
2023-05-18T00:55:22.373Z,95.34
2023-05-18T01:00:25.522Z,95.32
2023-05-18T01:05:28.323Z,95.35
2023-05-18T01:10:47.858Z,95.31
2023-05-18T01:15:57.236Z,95.31
2023-05-18T01:21:19.571Z,95.34
2023-05-18T01:26:30.245Z,95.30
2023-05-18T01:31:35.755Z,95.37
2023-05-18T01:36:38.290Z,95.41
2023-05-18T01:42:07.788Z,95.42
2023-05-18T01:47:14.509Z,95.37
2023-05-18T01:52:21.423Z,95.42
2023-05-18T01:57:27.313Z,95.44
2023-05-18T02:02:30.024Z,95.49
2023-05-18T02:07:32.880Z,95.51
2023-05-18T02:12:35.054Z,95.53
2023-05-18T02:17:40.312Z,95.56
2023-05-18T02:22:42.905Z,95.55
2023-05-18T02:27:45.920Z,95.55
2023-05-18T02:32:50.741Z,95.54
2023-05-18T02:37:53.928Z,95.49
2023-05-18T02:42:56.419Z,95.45
2023-05-18T02:48:04.122Z,95.41
2023-05-18T02:53:08.998Z,95.41
2023-05-18T02:58:14.519Z,95.38
2023-05-18T03:03:37.014Z,95.42
2023-05-18T03:08:41.148Z,95.43
2023-05-18T03:13:44.610Z,95.43
2023-05-18T03:18:48.307Z,95.41
2023-05-18T03:23:51.667Z,95.45
2023-05-18T03:28:58.836Z,95.45
2023-05-18T03:34:02.375Z,95.43
2023-05-18T03:39:06.520Z,95.40
2023-05-18T03:44:09.759Z,95.41
2023-05-18T03:49:12.566Z,95.41
2023-05-18T03:54:17.516Z,95.36
2023-05-18T03:59:25.706Z,95.36
2023-05-18T04:04:29.002Z,95.31
2023-05-18T04:09:49.600Z,95.37
2023-05-18T04:14:54.826Z,95.40
2023-05-18T04:19:57.014Z,95.42
2023-05-18T04:24:58.983Z,95.41
2023-05-18T04:30:05.253Z,95.36
2023-05-18T04:35:10.673Z,95.34
2023-05-18T04:40:17.646Z,95.18
2023-05-18T04:45:26.305Z,95.13
2023-05-18T04:50:42.049Z,95.02
2023-05-18T04:55:46.872Z,94.96
2023-05-18T05:00:54.918Z,94.91
2023-05-18T05:06:04.747Z,94.89
2023-05-18T05:11:11.550Z,94.93
2023-05-18T05:16:15.703Z,95.09
2023-05-18T05:21:18.168Z,95.29
2023-05-18T05:26:23.945Z,95.29
2023-05-18T05:31:34.130Z,95.18
2023-05-18T05:36:39.521Z,95.02
2023-05-18T05:41:41.990Z,94.79
2023-05-18T05:46:45.032Z,94.76
2023-05-18T05:51:49.048Z,95.02
2023-05-18T05:56:55.250Z,94.97
2023-05-18T06:02:02.212Z,94.76
2023-05-18T06:07:06.334Z,94.91
2023-05-18T06:12:09.920Z,95.02
2023-05-18T06:17:13.320Z,93.49
2023-05-18T06:22:18.864Z,93.69
2023-05-18T06:27:39.884Z,94.13
2023-05-18T06:33:08.745Z,94.30
2023-05-18T06:38:14.990Z,94.45
2023-05-18T06:43:22.720Z,94.61
2023-05-18T06:48:59.411Z,94.69
2023-05-18T06:54:05.460Z,93.91
2023-05-18T06:59:13.400Z,91.06
2023-05-18T07:04:25.226Z,89.95
2023-05-18T07:09:43.271Z,91.06
2023-05-18T07:14:46.006Z,89.22
2023-05-18T07:19:51.178Z,91.01
2023-05-18T07:25:08.437Z,90.22
2023-05-18T07:30:19.103Z,87.80
2023-05-18T07:35:24.265Z,88.28
2023-05-18T07:40:27.397Z,89.31
2023-05-18T07:45:35.248Z,89.53
2023-05-18T07:50:46.587Z,88.08
2023-05-18T07:56:07.546Z,85.35
2023-05-18T08:01:17.932Z,83.10
2023-05-18T08:06:41.990Z,85.75
2023-05-18T08:12:03.899Z,84.98
2023-05-18T08:17:23.616Z,85.38
2023-05-18T08:22:31.311Z,82.21
2023-05-18T08:27:34.341Z,79.41
2023-05-18T08:32:40.209Z,79.81
2023-05-18T08:37:43.027Z,81.49
2023-05-18T08:43:09.911Z,78.98
2023-05-18T08:48:19.956Z,78.23
2023-05-18T08:53:32.560Z,80.30
2023-05-18T08:58:48.871Z,79.57
2023-05-18T09:03:58.485Z,79.91
2023-05-18T09:09:06.572Z,80.01
2023-05-18T09:14:10.458Z,76.46
2023-05-18T09:19:12.845Z,77.85
2023-05-18T09:24:24.926Z,76.37
2023-05-18T09:29:51.238Z,77.33
2023-05-18T09:35:05.247Z,78.62
2023-05-18T09:40:19.576Z,74.77
2023-05-18T09:45:42.425Z,76.68
2023-05-18T09:51:06.741Z,75.84
2023-05-18T09:56:12.582Z,74.61
2023-05-18T10:01:17.362Z,75.78
2023-05-18T10:06:27.684Z,74.84
2023-05-18T10:11:33.394Z,80.44
2023-05-18T10:16:44.692Z,78.73
2023-05-18T10:21:52.102Z,76.77
2023-05-18T10:27:01.484Z,74.34
2023-05-18T10:32:20.441Z,76.48
2023-05-18T10:37:39.273Z,76.60
2023-05-18T10:42:44.870Z,77.70
2023-05-18T10:47:54.757Z,76.99
2023-05-18T10:53:02.272Z,79.12
2023-05-18T10:58:14.508Z,76.03
2023-05-18T11:03:18.979Z,75.32
2023-05-18T11:08:47.158Z,77.97
2023-05-18T11:14:24.868Z,79.86
2023-05-18T11:19:34.726Z,79.02
2023-05-18T11:24:42.312Z,78.83
2023-05-18T11:30:03.793Z,78.97
2023-05-18T11:35:23.091Z,78.16
2023-05-18T11:41:33.810Z,79.94
2023-05-18T11:47:13.921Z,73.42
2023-05-18T11:52:59.580Z,78.61
2023-05-18T11:58:30.075Z,80.52
2023-05-18T12:04:16.734Z,80.56
2023-05-18T12:09:42.670Z,82.58
2023-05-18T12:15:20.487Z,82.81
2023-05-18T12:20:47.005Z,84.03
2023-05-18T12:26:14.769Z,80.99
2023-05-18T12:31:32.199Z,81.58
2023-05-18T12:37:08.600Z,85.00
2023-05-18T12:42:35.114Z,81.20
2023-05-18T12:47:54.201Z,81.94
2023-05-18T12:54:11.863Z,81.79
2023-05-18T12:59:50.405Z,84.27
2023-05-18T13:05:17.600Z,81.03
2023-05-18T13:10:36.889Z,79.26
2023-05-18T13:15:59.356Z,80.70
2023-05-18T13:21:02.227Z,79.23
2023-05-18T13:26:18.771Z,82.79
2023-05-18T13:31:39.276Z,81.73
2023-05-18T13:37:00.108Z,83.17
2023-05-18T13:42:21.573Z,83.63
2023-05-18T13:47:31.798Z,84.65
2023-05-18T13:52:47.516Z,83.34
2023-05-18T13:58:01.310Z,80.77
2023-05-18T14:03:18.718Z,83.21
2023-05-18T14:08:54.659Z,77.39
2023-05-18T14:14:06.111Z,79.02
2023-05-18T14:19:16.971Z,77.92
2023-05-18T14:24:25.748Z,81.44
2023-05-18T14:29:35.887Z,83.10
2023-05-18T14:34:55.184Z,80.21
2023-05-18T14:40:06.781Z,77.92
2023-05-18T14:45:16.798Z,80.04
2023-05-18T14:50:55.533Z,75.15
2023-05-18T14:56:09.207Z,74.83
2023-05-18T15:01:19.084Z,79.00
2023-05-18T15:06:28.589Z,80.57
2023-05-18T15:11:34.565Z,81.41
2023-05-18T15:16:52.725Z,77.64
2023-05-18T15:22:09.565Z,83.61
2023-05-18T15:27:29.645Z,83.57
2023-05-18T15:32:41.077Z,83.53
2023-05-18T15:38:02.921Z,80.38
2023-05-18T15:43:23.145Z,78.21
2023-05-18T15:48:39.556Z,80.40
2023-05-18T15:54:11.083Z,80.97
2023-05-18T15:59:28.884Z,81.50
2023-05-18T16:04:54.055Z,82.96
2023-05-18T16:10:02.462Z,84.50
2023-05-18T16:15:05.495Z,84.22
2023-05-18T16:20:24.433Z,85.57
2023-05-18T16:25:32.702Z,84.72
2023-05-18T16:30:44.181Z,85.64
2023-05-18T16:35:54.136Z,83.72
2023-05-18T16:41:38.870Z,84.71
2023-05-18T16:47:12.032Z,85.88
2023-05-18T16:52:31.124Z,84.67
2023-05-18T16:57:51.347Z,86.53
2023-05-18T17:03:10.025Z,83.07
2023-05-18T17:08:39.871Z,87.60
2023-05-18T17:14:04.896Z,88.10
2023-05-18T17:19:15.456Z,86.57
2023-05-18T17:24:21.029Z,86.83
2023-05-18T17:29:38.927Z,85.63
2023-05-18T17:35:08.183Z,87.21
2023-05-18T17:40:19.218Z,86.44
2023-05-18T17:45:40.598Z,87.45
2023-05-18T17:50:50.998Z,89.74
2023-05-18T17:56:19.802Z,90.47
2023-05-18T18:01:35.189Z,89.75
2023-05-18T18:06:43.327Z,89.35
2023-05-18T18:11:46.015Z,89.14
2023-05-18T18:16:48.702Z,88.05
2023-05-18T18:21:51.264Z,87.88
2023-05-18T18:27:05.040Z,87.96
2023-05-18T18:32:21.300Z,88.56
2023-05-18T18:37:29.732Z,88.21
2023-05-18T18:42:48.024Z,88.45
2023-05-18T18:48:02.063Z,88.78
2023-05-18T18:53:19.121Z,88.50
2023-05-18T18:58:49.263Z,88.98
2023-05-18T19:04:02.698Z,89.30
2023-05-18T19:09:16.374Z,88.68
2023-05-18T19:14:27.788Z,88.62
2023-05-18T19:19:38.405Z,88.99
2023-05-18T19:24:41.182Z,89.66
2023-05-18T19:29:55.896Z,90.49
2023-05-18T19:35:01.341Z,90.87
2023-05-18T19:40:21.312Z,91.27
2023-05-18T19:45:33.781Z,91.17
2023-05-18T19:50:48.218Z,90.86
2023-05-18T19:56:20.845Z,90.29
2023-05-18T20:01:51.098Z,90.68
2023-05-18T20:07:06.864Z,91.44
2023-05-18T20:12:32.316Z,92.21
2023-05-18T20:17:42.883Z,92.34
2023-05-18T20:23:11.170Z,92.52
2023-05-18T20:28:27.726Z,92.43
2023-05-18T20:33:46.898Z,92.65
2023-05-18T20:38:49.613Z,92.81
2023-05-18T20:43:52.322Z,92.73
2023-05-18T20:49:05.654Z,92.75
2023-05-18T20:54:22.228Z,92.75
2023-05-18T20:59:46.897Z,92.63
2023-05-18T21:05:06.387Z,92.58
2023-05-18T21:10:36.040Z,92.77
2023-05-18T21:16:00.433Z,92.57
2023-05-18T21:21:23.524Z,92.77
2023-05-18T21:26:53.859Z,92.49
2023-05-18T21:32:15.972Z,92.78
2023-05-18T21:37:44.053Z,93.00
2023-05-18T21:43:01.728Z,92.84
2023-05-18T21:48:40.023Z,93.08
2023-05-18T21:54:19.403Z,92.93
2023-05-18T21:59:48.517Z,93.00
2023-05-18T22:05:19.527Z,93.25
2023-05-18T22:10:35.716Z,93.31
2023-05-18T22:15:55.272Z,93.25
2023-05-18T22:21:04.599Z,93.22
2023-05-18T22:26:48.245Z,93.20
2023-05-18T22:32:21.089Z,93.17
2023-05-18T22:37:54.269Z,93.12
2023-05-18T22:43:27.017Z,92.90
2023-05-18T22:49:21.044Z,92.80
2023-05-18T22:55:08.690Z,92.59
2023-05-18T23:00:42.742Z,91.92
2023-05-18T23:06:49.622Z,92.05
2023-05-18T23:12:48.931Z,91.41
2023-05-18T23:18:46.095Z,91.54
2023-05-18T23:24:15.774Z,90.94
2023-05-18T23:29:36.082Z,91.06
2023-05-18T23:34:57.619Z,91.53
2023-05-18T23:40:21.585Z,90.93
2023-05-18T23:46:12.061Z,91.46
2023-05-18T23:52:06.964Z,91.07
2023-05-18T23:57:32.347Z,90.79
